sensor_id;sensor_type;location;lat;lon;timestamp;pressure;altitude;pressure_sealevel;temperature;humidity
34696;BME280;20918;51.138;17.370;2023-01-29T00:01:10;101308.27;;;-2.32;81.14
34696;BME280;20918;51.138;17.370;2023-01-29T00:04:11;101307.65;;;-2.34;81.06
34696;BME280;20918;51.138;17.370;2023-01-29T00:07:12;101312.45;;;-2.38;81.31
34696;BME280;20918;51.138;17.370;2023-01-29T00:10:12;101311.42;;;-2.38;81.44
34696;BME280;20918;51.138;17.370;2023-01-29T00:13:13;101302.33;;;-2.41;81.65
34696;BME280;20918;51.138;17.370;2023-01-29T00:16:13;101306.61;;;-2.44;81.88
34696;BME280;20918;51.138;17.370;2023-01-29T00:19:14;101308.14;;;-2.48;82.32
34696;BME280;20918;51.138;17.370;2023-01-29T00:22:15;101307.23;;;-2.52;82.50
34696;BME280;20918;51.138;17.370;2023-01-29T00:25:15;101308.52;;;-2.54;82.75
34696;BME280;20918;51.138;17.370;2023-01-29T00:28:16;101301.30;;;-2.56;82.87
34696;BME280;20918;51.138;17.370;2023-01-29T00:31:22;101292.52;;;-2.57;83.14
34696;BME280;20918;51.138;17.370;2023-01-29T00:34:22;101287.21;;;-2.59;83.20
34696;BME280;20918;51.138;17.370;2023-01-29T00:37:23;101280.36;;;-2.61;83.39
34696;BME280;20918;51.138;17.370;2023-01-29T00:40:25;101275.90;;;-2.67;83.46
34696;BME280;20918;51.138;17.370;2023-01-29T00:43:25;101270.08;;;-2.74;83.70
34696;BME280;20918;51.138;17.370;2023-01-29T00:46:45;101272.67;;;-2.79;83.46
34696;BME280;20918;51.138;17.370;2023-01-29T00:49:45;101271.75;;;-2.83;83.76
34696;BME280;20918;51.138;17.370;2023-01-29T00:52:46;101274.92;;;-2.84;83.75
34696;BME280;20918;51.138;17.370;2023-01-29T00:55:49;101261.16;;;-2.87;83.56
34696;BME280;20918;51.138;17.370;2023-01-29T00:58:50;101251.92;;;-2.89;83.47
34696;BME280;20918;51.138;17.370;2023-01-29T01:01:51;101243.34;;;-2.92;83.60
34696;BME280;20918;51.138;17.370;2023-01-29T01:05:11;101241.71;;;-2.95;83.63
34696;BME280;20918;51.138;17.370;2023-01-29T01:08:17;101239.39;;;-2.98;83.79
34696;BME280;20918;51.138;17.370;2023-01-29T01:11:36;101232.91;;;-3.01;83.64
34696;BME280;20918;51.138;17.370;2023-01-29T01:14:37;101233.38;;;-3.04;83.57
34696;BME280;20918;51.138;17.370;2023-01-29T01:17:37;101238.35;;;-3.08;83.73
34696;BME280;20918;51.138;17.370;2023-01-29T01:20:38;101234.60;;;-3.10;84.04
34696;BME280;20918;51.138;17.370;2023-01-29T01:23:39;101232.78;;;-3.11;83.91
34696;BME280;20918;51.138;17.370;2023-01-29T01:26:39;101232.36;;;-3.15;83.88
34696;BME280;20918;51.138;17.370;2023-01-29T01:29:40;101233.63;;;-3.17;83.88
34696;BME280;20918;51.138;17.370;2023-01-29T01:32:41;101233.89;;;-3.19;83.97
34696;BME280;20918;51.138;17.370;2023-01-29T01:35:44;101246.70;;;-3.20;84.19
34696;BME280;20918;51.138;17.370;2023-01-29T01:38:45;101247.58;;;-3.20;84.33
34696;BME280;20918;51.138;17.370;2023-01-29T01:41:46;101241.34;;;-3.20;84.32
34696;BME280;20918;51.138;17.370;2023-01-29T01:44:55;101240.11;;;-3.19;84.14
34696;BME280;20918;51.138;17.370;2023-01-29T01:51:04;101233.05;;;-3.15;84.30
34696;BME280;20918;51.138;17.370;2023-01-29T01:54:09;101232.38;;;-3.16;84.26
34696;BME280;20918;51.138;17.370;2023-01-29T01:57:17;101228.57;;;-3.16;84.35
34696;BME280;20918;51.138;17.370;2023-01-29T02:00:25;101219.35;;;-3.14;84.60
34696;BME280;20918;51.138;17.370;2023-01-29T02:03:27;101213.27;;;-3.13;84.56
34696;BME280;20918;51.138;17.370;2023-01-29T02:06:49;101210.77;;;-3.11;84.51
34696;BME280;20918;51.138;17.370;2023-01-29T02:10:14;101218.52;;;-3.10;84.57
34696;BME280;20918;51.138;17.370;2023-01-29T02:13:15;101216.48;;;-3.11;84.53
34696;BME280;20918;51.138;17.370;2023-01-29T02:16:21;101219.46;;;-3.12;84.49
34696;BME280;20918;51.138;17.370;2023-01-29T02:23:33;101227.63;;;-3.13;84.50
34696;BME280;20918;51.138;17.370;2023-01-29T02:27:01;101232.40;;;-3.11;84.68
34696;BME280;20918;51.138;17.370;2023-01-29T02:30:22;101236.52;;;-3.10;84.81
34696;BME280;20918;51.138;17.370;2023-01-29T02:33:59;101234.40;;;-3.09;84.86
34696;BME280;20918;51.138;17.370;2023-01-29T02:37:08;101233.56;;;-3.09;84.91
34696;BME280;20918;51.138;17.370;2023-01-29T02:40:28;101232.32;;;-3.09;84.78
34696;BME280;20918;51.138;17.370;2023-01-29T02:46:50;101233.89;;;-3.09;84.76
34696;BME280;20918;51.138;17.370;2023-01-29T02:50:02;101239.91;;;-3.08;85.05
34696;BME280;20918;51.138;17.370;2023-01-29T02:53:18;101232.00;;;-3.09;85.00
34696;BME280;20918;51.138;17.370;2023-01-29T02:56:27;101233.40;;;-3.10;85.07
34696;BME280;20918;51.138;17.370;2023-01-29T02:59:35;101228.71;;;-3.09;84.99
34696;BME280;20918;51.138;17.370;2023-01-29T03:02:41;101224.89;;;-3.09;85.02
34696;BME280;20918;51.138;17.370;2023-01-29T03:09:06;101223.16;;;-3.09;85.24
34696;BME280;20918;51.138;17.370;2023-01-29T03:12:12;101222.42;;;-3.08;85.45
34696;BME280;20918;51.138;17.370;2023-01-29T03:15:33;101226.20;;;-3.07;85.51
34696;BME280;20918;51.138;17.370;2023-01-29T03:19:07;101225.09;;;-3.05;85.61
34696;BME280;20918;51.138;17.370;2023-01-29T03:22:13;101220.55;;;-3.04;85.72
34696;BME280;20918;51.138;17.370;2023-01-29T03:25:17;101219.96;;;-3.02;85.65
34696;BME280;20918;51.138;17.370;2023-01-29T03:28:41;101219.03;;;-3.00;85.62
34696;BME280;20918;51.138;17.370;2023-01-29T03:32:01;101211.32;;;-2.97;85.60
34696;BME280;20918;51.138;17.370;2023-01-29T03:35:09;101212.48;;;-2.96;85.59
34696;BME280;20918;51.138;17.370;2023-01-29T03:38:13;101217.66;;;-2.96;85.59
34696;BME280;20918;51.138;17.370;2023-01-29T03:41:25;101219.15;;;-2.94;85.79
34696;BME280;20918;51.138;17.370;2023-01-29T03:48:05;101214.73;;;-2.91;85.70
34696;BME280;20918;51.138;17.370;2023-01-29T03:51:29;101214.36;;;-2.90;85.71
34696;BME280;20918;51.138;17.370;2023-01-29T03:54:39;101212.94;;;-2.89;85.66
34696;BME280;20918;51.138;17.370;2023-01-29T04:01:09;101191.92;;;-2.87;85.53
34696;BME280;20918;51.138;17.370;2023-01-29T04:04:28;101194.16;;;-2.87;85.52
34696;BME280;20918;51.138;17.370;2023-01-29T04:07:35;101192.94;;;-2.87;85.24
34696;BME280;20918;51.138;17.370;2023-01-29T04:10:38;101187.16;;;-2.85;84.99
34696;BME280;20918;51.138;17.370;2023-01-29T04:13:42;101184.32;;;-2.83;84.86
34696;BME280;20918;51.138;17.370;2023-01-29T04:16:47;101181.80;;;-2.81;84.83
34696;BME280;20918;51.138;17.370;2023-01-29T04:20:05;101182.95;;;-2.78;84.58
34696;BME280;20918;51.138;17.370;2023-01-29T04:23:19;101188.21;;;-2.76;84.31
34696;BME280;20918;51.138;17.370;2023-01-29T04:29:56;101178.45;;;-2.69;84.05
34696;BME280;20918;51.138;17.370;2023-01-29T04:33:05;101174.23;;;-2.67;83.82
34696;BME280;20918;51.138;17.370;2023-01-29T04:39:33;101166.79;;;-2.68;83.57
34696;BME280;20918;51.138;17.370;2023-01-29T04:46:23;101149.97;;;-2.67;83.22
34696;BME280;20918;51.138;17.370;2023-01-29T04:49:46;101146.98;;;-2.66;83.26
34696;BME280;20918;51.138;17.370;2023-01-29T04:52:59;101141.09;;;-2.66;83.39
34696;BME280;20918;51.138;17.370;2023-01-29T04:56:15;101131.20;;;-2.66;83.14
34696;BME280;20918;51.138;17.370;2023-01-29T04:59:27;101139.01;;;-2.66;82.95
34696;BME280;20918;51.138;17.370;2023-01-29T05:02:32;101143.17;;;-2.66;83.36
34696;BME280;20918;51.138;17.370;2023-01-29T05:05:35;101139.52;;;-2.65;83.33
34696;BME280;20918;51.138;17.370;2023-01-29T05:08:37;101140.34;;;-2.64;83.43
34696;BME280;20918;51.138;17.370;2023-01-29T05:11:39;101134.83;;;-2.65;83.29
34696;BME280;20918;51.138;17.370;2023-01-29T05:14:44;101135.33;;;-2.65;83.41
34696;BME280;20918;51.138;17.370;2023-01-29T05:17:45;101131.55;;;-2.66;83.36
34696;BME280;20918;51.138;17.370;2023-01-29T05:20:46;101129.66;;;-2.66;83.26
34696;BME280;20918;51.138;17.370;2023-01-29T05:24:15;101129.33;;;-2.66;83.42
34696;BME280;20918;51.138;17.370;2023-01-29T05:27:24;101130.21;;;-2.67;83.20
34696;BME280;20918;51.138;17.370;2023-01-29T05:30:49;101126.40;;;-2.67;83.15
34696;BME280;20918;51.138;17.370;2023-01-29T05:33:51;101122.79;;;-2.67;83.07
34696;BME280;20918;51.138;17.370;2023-01-29T05:36:51;101125.03;;;-2.67;83.06
34696;BME280;20918;51.138;17.370;2023-01-29T05:39:52;101121.92;;;-2.67;83.12
34696;BME280;20918;51.138;17.370;2023-01-29T05:42:53;101123.83;;;-2.67;83.10
34696;BME280;20918;51.138;17.370;2023-01-29T05:45:55;101122.79;;;-2.67;82.94
34696;BME280;20918;51.138;17.370;2023-01-29T05:48:56;101122.80;;;-2.68;82.68
34696;BME280;20918;51.138;17.370;2023-01-29T05:51:57;101119.18;;;-2.68;82.84
34696;BME280;20918;51.138;17.370;2023-01-29T05:54:57;101119.54;;;-2.68;82.44
34696;BME280;20918;51.138;17.370;2023-01-29T05:57:58;101122.50;;;-2.69;82.39
34696;BME280;20918;51.138;17.370;2023-01-29T06:01:17;101113.28;;;-2.68;82.41
34696;BME280;20918;51.138;17.370;2023-01-29T06:04:18;101112.92;;;-2.68;82.37
34696;BME280;20918;51.138;17.370;2023-01-29T06:07:19;101111.73;;;-2.68;82.32
34696;BME280;20918;51.138;17.370;2023-01-29T06:10:20;101121.25;;;-2.68;82.28
34696;BME280;20918;51.138;17.370;2023-01-29T06:13:20;101129.23;;;-2.68;82.27
34696;BME280;20918;51.138;17.370;2023-01-29T06:16:21;101119.88;;;-2.68;82.04
34696;BME280;20918;51.138;17.370;2023-01-29T06:19:22;101117.98;;;-2.68;82.10
34696;BME280;20918;51.138;17.370;2023-01-29T06:22:26;101131.17;;;-2.69;82.11
34696;BME280;20918;51.138;17.370;2023-01-29T06:25:27;101122.75;;;-2.72;81.84
34696;BME280;20918;51.138;17.370;2023-01-29T06:28:27;101121.25;;;-2.73;81.88
34696;BME280;20918;51.138;17.370;2023-01-29T06:31:31;101130.28;;;-2.74;81.82
34696;BME280;20918;51.138;17.370;2023-01-29T06:34:32;101129.15;;;-2.76;81.59
34696;BME280;20918;51.138;17.370;2023-01-29T06:37:36;101129.52;;;-2.76;81.68
34696;BME280;20918;51.138;17.370;2023-01-29T06:40:37;101139.23;;;-2.77;81.71
34696;BME280;20918;51.138;17.370;2023-01-29T06:43:38;101140.13;;;-2.78;81.72
34696;BME280;20918;51.138;17.370;2023-01-29T06:46:39;101135.10;;;-2.78;81.69
34696;BME280;20918;51.138;17.370;2023-01-29T06:49:40;101139.06;;;-2.77;81.72
34696;BME280;20918;51.138;17.370;2023-01-29T06:52:41;101142.86;;;-2.77;81.71
34696;BME280;20918;51.138;17.370;2023-01-29T06:55:42;101152.79;;;-2.78;81.60
34696;BME280;20918;51.138;17.370;2023-01-29T06:58:42;101160.80;;;-2.80;81.62
34696;BME280;20918;51.138;17.370;2023-01-29T07:01:43;101169.49;;;-2.80;81.63
34696;BME280;20918;51.138;17.370;2023-01-29T07:04:44;101174.03;;;-2.81;81.67
34696;BME280;20918;51.138;17.370;2023-01-29T07:07:45;101173.04;;;-2.83;81.63
34696;BME280;20918;51.138;17.370;2023-01-29T07:10:48;101168.03;;;-2.83;81.74
34696;BME280;20918;51.138;17.370;2023-01-29T07:13:48;101172.77;;;-2.84;81.37
34696;BME280;20918;51.138;17.370;2023-01-29T07:16:49;101181.78;;;-2.84;81.51
34696;BME280;20918;51.138;17.370;2023-01-29T07:19:50;101186.56;;;-2.83;81.73
34696;BME280;20918;51.138;17.370;2023-01-29T07:22:51;101193.94;;;-2.81;81.62
34696;BME280;20918;51.138;17.370;2023-01-29T07:25:52;101194.82;;;-2.76;81.44
34696;BME280;20918;51.138;17.370;2023-01-29T07:28:55;101189.00;;;-2.74;81.47
34696;BME280;20918;51.138;17.370;2023-01-29T07:31:56;101188.33;;;-2.69;81.53
34696;BME280;20918;51.138;17.370;2023-01-29T07:34:57;101189.33;;;-2.63;81.53
34696;BME280;20918;51.138;17.370;2023-01-29T07:37:58;101184.51;;;-2.59;81.37
34696;BME280;20918;51.138;17.370;2023-01-29T07:40:58;101184.91;;;-2.56;81.15
34696;BME280;20918;51.138;17.370;2023-01-29T07:43:59;101187.16;;;-2.52;81.29
34696;BME280;20918;51.138;17.370;2023-01-29T07:47:00;101182.80;;;-2.47;81.31
34696;BME280;20918;51.138;17.370;2023-01-29T07:50:01;101178.98;;;-2.41;81.23
34696;BME280;20918;51.138;17.370;2023-01-29T07:53:02;101171.66;;;-2.36;81.07
34696;BME280;20918;51.138;17.370;2023-01-29T07:56:03;101168.17;;;-2.31;80.79
34696;BME280;20918;51.138;17.370;2023-01-29T07:59:04;101170.62;;;-2.27;80.27
34696;BME280;20918;51.138;17.370;2023-01-29T08:02:05;101173.87;;;-2.21;80.79
34696;BME280;20918;51.138;17.370;2023-01-29T08:05:06;101168.45;;;-2.15;80.75
34696;BME280;20918;51.138;17.370;2023-01-29T08:08:08;101159.02;;;-2.14;80.33
34696;BME280;20918;51.138;17.370;2023-01-29T08:11:09;101154.21;;;-2.15;79.88
34696;BME280;20918;51.138;17.370;2023-01-29T08:14:10;101154.39;;;-2.15;79.96
34696;BME280;20918;51.138;17.370;2023-01-29T08:17:14;101152.05;;;-2.13;80.08
34696;BME280;20918;51.138;17.370;2023-01-29T08:20:16;101143.40;;;-2.09;80.15
34696;BME280;20918;51.138;17.370;2023-01-29T08:23:17;101133.73;;;-2.06;80.18
34696;BME280;20918;51.138;17.370;2023-01-29T08:26:18;101133.79;;;-2.03;79.35
34696;BME280;20918;51.138;17.370;2023-01-29T08:29:19;101135.13;;;-2.01;79.00
34696;BME280;20918;51.138;17.370;2023-01-29T08:32:20;101135.88;;;-2.03;79.20
34696;BME280;20918;51.138;17.370;2023-01-29T08:35:21;101142.70;;;-2.00;79.34
34696;BME280;20918;51.138;17.370;2023-01-29T08:38:22;101148.89;;;-1.94;79.76
34696;BME280;20918;51.138;17.370;2023-01-29T08:41:23;101140.36;;;-1.89;79.61
34696;BME280;20918;51.138;17.370;2023-01-29T08:44:24;101134.46;;;-1.85;79.21
34696;BME280;20918;51.138;17.370;2023-01-29T08:47:25;101119.10;;;-1.83;78.83
34696;BME280;20918;51.138;17.370;2023-01-29T08:50:26;101117.87;;;-1.78;79.07
34696;BME280;20918;51.138;17.370;2023-01-29T08:53:30;101117.59;;;-1.71;79.17
34696;BME280;20918;51.138;17.370;2023-01-29T08:56:31;101107.13;;;-1.58;79.26
34696;BME280;20918;51.138;17.370;2023-01-29T08:59:32;101104.28;;;-1.48;78.54
34696;BME280;20918;51.138;17.370;2023-01-29T09:02:33;101104.98;;;-1.40;78.59
34696;BME280;20918;51.138;17.370;2023-01-29T09:05:36;101112.20;;;-1.30;78.48
34696;BME280;20918;51.138;17.370;2023-01-29T09:08:37;101114.40;;;-1.25;78.54
34696;BME280;20918;51.138;17.370;2023-01-29T09:11:38;101116.79;;;-1.20;77.95
34696;BME280;20918;51.138;17.370;2023-01-29T09:14:40;101118.99;;;-1.23;77.72
34696;BME280;20918;51.138;17.370;2023-01-29T09:17:41;101114.71;;;-1.20;78.04
34696;BME280;20918;51.138;17.370;2023-01-29T09:20:43;101113.77;;;-1.19;77.66
34696;BME280;20918;51.138;17.370;2023-01-29T09:23:44;101122.00;;;-1.16;77.84
34696;BME280;20918;51.138;17.370;2023-01-29T09:26:44;101121.84;;;-1.17;77.75
34696;BME280;20918;51.138;17.370;2023-01-29T09:29:48;101116.67;;;-1.21;77.23
34696;BME280;20918;51.138;17.370;2023-01-29T09:32:52;101110.39;;;-1.24;77.34
34696;BME280;20918;51.138;17.370;2023-01-29T09:35:55;101108.92;;;-1.23;77.78
34696;BME280;20918;51.138;17.370;2023-01-29T09:38:58;101106.48;;;-1.18;77.49
34696;BME280;20918;51.138;17.370;2023-01-29T09:42:03;101107.83;;;-1.18;77.64
34696;BME280;20918;51.138;17.370;2023-01-29T09:45:14;101103.39;;;-1.16;77.45
34696;BME280;20918;51.138;17.370;2023-01-29T09:48:19;101104.56;;;-1.14;77.24
34696;BME280;20918;51.138;17.370;2023-01-29T09:51:33;101088.59;;;-1.15;77.57
34696;BME280;20918;51.138;17.370;2023-01-29T09:58:36;101074.42;;;-1.12;76.98
34696;BME280;20918;51.138;17.370;2023-01-29T10:05:31;101054.85;;;-1.02;77.38
34696;BME280;20918;51.138;17.370;2023-01-29T10:08:44;101051.83;;;-0.96;77.49
34696;BME280;20918;51.138;17.370;2023-01-29T10:15:24;101041.25;;;-0.85;77.06
34696;BME280;20918;51.138;17.370;2023-01-29T10:18:57;101040.63;;;-0.79;77.17
34696;BME280;20918;51.138;17.370;2023-01-29T10:25:26;101034.84;;;-0.82;76.58
34696;BME280;20918;51.138;17.370;2023-01-29T10:28:44;101029.02;;;-0.80;76.92
34696;BME280;20918;51.138;17.370;2023-01-29T10:32:00;101023.88;;;-0.71;77.37
34696;BME280;20918;51.138;17.370;2023-01-29T10:35:12;101018.14;;;-0.63;77.02
34696;BME280;20918;51.138;17.370;2023-01-29T10:45:28;101011.42;;;-0.54;77.09
34696;BME280;20918;51.138;17.370;2023-01-29T10:51:45;101013.66;;;-0.53;76.91
34696;BME280;20918;51.138;17.370;2023-01-29T10:58:53;101016.81;;;-0.53;76.62
34696;BME280;20918;51.138;17.370;2023-01-29T11:01:58;101014.95;;;-0.51;76.85
34696;BME280;20918;51.138;17.370;2023-01-29T11:04:59;101005.52;;;-0.47;76.63
34696;BME280;20918;51.138;17.370;2023-01-29T11:08:06;101001.19;;;-0.47;76.33
34696;BME280;20918;51.138;17.370;2023-01-29T11:11:16;100993.55;;;-0.47;76.55
34696;BME280;20918;51.138;17.370;2023-01-29T11:14:23;100990.84;;;-0.49;76.39
34696;BME280;20918;51.138;17.370;2023-01-29T11:17:25;100987.55;;;-0.49;76.55
34696;BME280;20918;51.138;17.370;2023-01-29T11:20:28;100984.21;;;-0.48;76.89
34696;BME280;20918;51.138;17.370;2023-01-29T11:23:46;100973.67;;;-0.46;76.77
34696;BME280;20918;51.138;17.370;2023-01-29T11:26:50;100973.83;;;-0.38;77.15
34696;BME280;20918;51.138;17.370;2023-01-29T11:29:52;100966.80;;;-0.33;76.91
34696;BME280;20918;51.138;17.370;2023-01-29T11:33:08;100961.80;;;-0.27;76.79
34696;BME280;20918;51.138;17.370;2023-01-29T11:36:21;100952.55;;;-0.23;76.86
34696;BME280;20918;51.138;17.370;2023-01-29T11:39:23;100953.58;;;-0.16;77.03
34696;BME280;20918;51.138;17.370;2023-01-29T11:42:30;100947.06;;;-0.08;76.86
34696;BME280;20918;51.138;17.370;2023-01-29T11:45:31;100933.66;;;-0.04;76.63
34696;BME280;20918;51.138;17.370;2023-01-29T11:48:46;100924.33;;;-0.02;76.95
34696;BME280;20918;51.138;17.370;2023-01-29T11:51:54;100918.31;;;0.00;76.99
34696;BME280;20918;51.138;17.370;2023-01-29T11:55:01;100913.43;;;0.04;76.89
34696;BME280;20918;51.138;17.370;2023-01-29T11:58:21;100907.98;;;0.02;76.52
34696;BME280;20918;51.138;17.370;2023-01-29T12:01:37;100906.59;;;-0.02;76.62
34696;BME280;20918;51.138;17.370;2023-01-29T12:04:40;100903.33;;;-0.03;76.76
34696;BME280;20918;51.138;17.370;2023-01-29T12:07:50;100897.72;;;-0.02;77.02
34696;BME280;20918;51.138;17.370;2023-01-29T12:11:06;100892.95;;;-0.00;77.33
34696;BME280;20918;51.138;17.370;2023-01-29T12:14:40;100887.42;;;0.02;77.17
34696;BME280;20918;51.138;17.370;2023-01-29T12:17:44;100877.97;;;0.04;77.26
34696;BME280;20918;51.138;17.370;2023-01-29T12:21:00;100869.23;;;0.04;76.96
34696;BME280;20918;51.138;17.370;2023-01-29T12:27:45;100853.40;;;-0.03;77.24
34696;BME280;20918;51.138;17.370;2023-01-29T12:37:47;100847.08;;;0.05;78.12
34696;BME280;20918;51.138;17.370;2023-01-29T12:44:01;100844.23;;;0.10;78.23
34696;BME280;20918;51.138;17.370;2023-01-29T12:47:05;100841.27;;;0.10;78.63
34696;BME280;20918;51.138;17.370;2023-01-29T12:50:31;100835.27;;;0.11;78.50
34696;BME280;20918;51.138;17.370;2023-01-29T12:53:46;100841.50;;;0.12;78.64
34696;BME280;20918;51.138;17.370;2023-01-29T12:56:55;100833.08;;;0.13;78.61
34696;BME280;20918;51.138;17.370;2023-01-29T13:00:03;100823.33;;;0.13;78.57
34696;BME280;20918;51.138;17.370;2023-01-29T13:03:26;100818.42;;;0.11;78.73
34696;BME280;20918;51.138;17.370;2023-01-29T13:06:34;100815.09;;;0.11;78.69
34696;BME280;20918;51.138;17.370;2023-01-29T13:09:37;100807.23;;;0.09;78.71
34696;BME280;20918;51.138;17.370;2023-01-29T13:12:51;100799.91;;;0.09;78.88
34696;BME280;20918;51.138;17.370;2023-01-29T13:15:55;100793.90;;;0.07;79.27
34696;BME280;20918;51.138;17.370;2023-01-29T13:19:08;100796.16;;;0.14;79.34
34696;BME280;20918;51.138;17.370;2023-01-29T13:22:31;100797.46;;;0.18;79.49
34696;BME280;20918;51.138;17.370;2023-01-29T13:25:36;100799.79;;;0.17;79.57
34696;BME280;20918;51.138;17.370;2023-01-29T13:28:38;100802.64;;;0.16;79.71
34696;BME280;20918;51.138;17.370;2023-01-29T13:31:39;100803.50;;;0.16;79.75
34696;BME280;20918;51.138;17.370;2023-01-29T13:34:47;100799.11;;;0.17;80.01
34696;BME280;20918;51.138;17.370;2023-01-29T13:37:51;100795.04;;;0.18;80.03
34696;BME280;20918;51.138;17.370;2023-01-29T13:41:00;100788.34;;;0.20;80.12
34696;BME280;20918;51.138;17.370;2023-01-29T13:44:19;100787.39;;;0.21;80.23
34696;BME280;20918;51.138;17.370;2023-01-29T13:47:30;100785.61;;;0.22;80.16
34696;BME280;20918;51.138;17.370;2023-01-29T13:50:38;100773.35;;;0.23;80.24
34696;BME280;20918;51.138;17.370;2023-01-29T13:53:41;100764.44;;;0.24;80.16
34696;BME280;20918;51.138;17.370;2023-01-29T13:56:56;100762.34;;;0.25;80.07
34696;BME280;20918;51.138;17.370;2023-01-29T13:59:58;100763.98;;;0.26;80.37
34696;BME280;20918;51.138;17.370;2023-01-29T14:06:01;100758.18;;;0.27;80.25
34696;BME280;20918;51.138;17.370;2023-01-29T14:09:02;100757.39;;;0.26;80.04
34696;BME280;20918;51.138;17.370;2023-01-29T14:12:03;100761.09;;;0.25;80.24
34696;BME280;20918;51.138;17.370;2023-01-29T14:15:27;100758.77;;;0.23;80.12
34696;BME280;20918;51.138;17.370;2023-01-29T14:18:29;100760.17;;;0.23;80.26
34696;BME280;20918;51.138;17.370;2023-01-29T14:21:33;100757.80;;;0.25;80.44
34696;BME280;20918;51.138;17.370;2023-01-29T14:24:35;100756.48;;;0.27;80.14
34696;BME280;20918;51.138;17.370;2023-01-29T14:27:36;100754.23;;;0.26;80.23
34696;BME280;20918;51.138;17.370;2023-01-29T14:30:36;100755.08;;;0.27;80.04
34696;BME280;20918;51.138;17.370;2023-01-29T14:33:39;100757.77;;;0.25;80.02
34696;BME280;20918;51.138;17.370;2023-01-29T14:36:43;100760.41;;;0.25;80.13
34696;BME280;20918;51.138;17.370;2023-01-29T14:40:21;100759.27;;;0.23;80.25
34696;BME280;20918;51.138;17.370;2023-01-29T14:43:19;100760.21;;;0.22;80.36
34696;BME280;20918;51.138;17.370;2023-01-29T14:49:54;100762.64;;;0.19;80.77
34696;BME280;20918;51.138;17.370;2023-01-29T14:53:02;100757.95;;;0.19;80.67
34696;BME280;20918;51.138;17.370;2023-01-29T14:56:26;100753.42;;;0.19;80.97
34696;BME280;20918;51.138;17.370;2023-01-29T14:59:56;100753.20;;;0.20;80.60
34696;BME280;20918;51.138;17.370;2023-01-29T15:03:00;100751.85;;;0.19;80.99
34696;BME280;20918;51.138;17.370;2023-01-29T15:06:05;100752.72;;;0.19;81.14
34696;BME280;20918;51.138;17.370;2023-01-29T15:09:17;100756.20;;;0.19;81.06
34696;BME280;20918;51.138;17.370;2023-01-29T15:18:37;100753.30;;;0.15;81.51
34696;BME280;20918;51.138;17.370;2023-01-29T15:22:39;100751.89;;;0.15;81.45
34696;BME280;20918;51.138;17.370;2023-01-29T15:25:36;100749.59;;;0.13;81.58
34696;BME280;20918;51.138;17.370;2023-01-29T15:28:56;100755.27;;;0.11;81.64
34696;BME280;20918;51.138;17.370;2023-01-29T15:31:57;100748.25;;;0.08;81.63
34696;BME280;20918;51.138;17.370;2023-01-29T15:34:59;100750.23;;;0.08;81.99
34696;BME280;20918;51.138;17.370;2023-01-29T15:38:19;100755.48;;;0.07;82.17
34696;BME280;20918;51.138;17.370;2023-01-29T15:41:21;100760.00;;;0.04;82.23
34696;BME280;20918;51.138;17.370;2023-01-29T15:44:23;100768.20;;;0.04;82.54
34696;BME280;20918;51.138;17.370;2023-01-29T15:47:29;100771.20;;;0.03;82.78
34696;BME280;20918;51.138;17.370;2023-01-29T15:50:34;100764.84;;;-0.02;82.76
34696;BME280;20918;51.138;17.370;2023-01-29T15:53:59;100759.63;;;-0.06;82.97
34696;BME280;20918;51.138;17.370;2023-01-29T15:57:02;100757.92;;;-0.09;83.10
34696;BME280;20918;51.138;17.370;2023-01-29T16:00:05;100751.57;;;-0.11;83.28
34696;BME280;20918;51.138;17.370;2023-01-29T16:03:15;100746.48;;;-0.13;83.57
34696;BME280;20918;51.138;17.370;2023-01-29T16:06:16;100741.44;;;-0.16;83.85
34696;BME280;20918;51.138;17.370;2023-01-29T16:09:20;100743.40;;;-0.20;84.14
34696;BME280;20918;51.138;17.370;2023-01-29T16:12:23;100744.27;;;-0.23;84.18
34696;BME280;20918;51.138;17.370;2023-01-29T16:15:33;100743.67;;;-0.26;84.46
34696;BME280;20918;51.138;17.370;2023-01-29T16:18:38;100743.25;;;-0.28;84.59
34696;BME280;20918;51.138;17.370;2023-01-29T16:21:42;100743.91;;;-0.30;84.91
34696;BME280;20918;51.138;17.370;2023-01-29T16:24:45;100741.75;;;-0.32;85.35
34696;BME280;20918;51.138;17.370;2023-01-29T16:27:50;100739.92;;;-0.33;85.14
34696;BME280;20918;51.138;17.370;2023-01-29T16:30:56;100734.16;;;-0.33;85.36
34696;BME280;20918;51.138;17.370;2023-01-29T16:33:58;100732.13;;;-0.34;85.51
34696;BME280;20918;51.138;17.370;2023-01-29T16:37:31;100733.16;;;-0.37;85.85
34696;BME280;20918;51.138;17.370;2023-01-29T16:40:34;100730.85;;;-0.39;85.84
34696;BME280;20918;51.138;17.370;2023-01-29T16:43:47;100727.15;;;-0.42;86.31
34696;BME280;20918;51.138;17.370;2023-01-29T16:46:48;100724.36;;;-0.45;86.39
34696;BME280;20918;51.138;17.370;2023-01-29T16:53:20;100730.77;;;-0.48;86.91
34696;BME280;20918;51.138;17.370;2023-01-29T16:56:23;100733.95;;;-0.49;86.89
34696;BME280;20918;51.138;17.370;2023-01-29T17:02:32;100728.13;;;-0.47;86.92
34696;BME280;20918;51.138;17.370;2023-01-29T17:05:36;100726.41;;;-0.48;87.29
34696;BME280;20918;51.138;17.370;2023-01-29T17:08:40;100713.40;;;-0.48;86.99
34696;BME280;20918;51.138;17.370;2023-01-29T17:11:42;100711.32;;;-0.48;87.26
34696;BME280;20918;51.138;17.370;2023-01-29T17:15:01;100708.27;;;-0.50;87.32
34696;BME280;20918;51.138;17.370;2023-01-29T17:18:02;100707.67;;;-0.52;87.37
34696;BME280;20918;51.138;17.370;2023-01-29T17:21:03;100708.82;;;-0.54;87.32
34696;BME280;20918;51.138;17.370;2023-01-29T17:24:04;100706.34;;;-0.56;87.10
34696;BME280;20918;51.138;17.370;2023-01-29T17:27:05;100696.50;;;-0.57;87.17
34696;BME280;20918;51.138;17.370;2023-01-29T17:30:18;100696.00;;;-0.58;87.28
34696;BME280;20918;51.138;17.370;2023-01-29T17:33:19;100698.18;;;-0.59;87.18
34696;BME280;20918;51.138;17.370;2023-01-29T17:36:25;100693.30;;;-0.62;87.35
34696;BME280;20918;51.138;17.370;2023-01-29T17:39:25;100692.66;;;-0.63;87.40